Time;durP1;ratioP1;P1;durP2;ratioP2;P2;SDS_P1;SDS_P2;PMS_P1;PMS_P2;Temp;Humidity;BMP_temperature;BMP_pressure;BME280_temperature;BME280_humidity;BME280_pressure;Samples;Min_cycle;Max_cycle;Signal;HPM_P1;HPM_P2
2023/06/19 00:00:42;;;;;;;9.30;8.43;;;;;;;17.48;87.31;99462.69;5053735;28;20156;-81
2023/06/19 00:03:07;;;;;;;10.23;9.18;;;;;;;17.60;87.41;99495.97;5053386;28;20033;-81
2023/06/19 00:05:33;;;;;;;10.30;9.40;;;;;;;17.36;88.02;99461.88;5053470;28;20465;-80
2023/06/19 00:07:58;;;;;;;8.85;8.05;;;;;;;17.50;88.25;99494.19;5053666;28;20516;-81
2023/06/19 00:10:24;;;;;;;10.00;8.80;;;;;;;17.32;87.84;99456.94;5053340;28;20029;-81
2023/06/19 00:12:49;;;;;;;10.27;9.38;;;;;;;17.34;88.08;99470.81;5053596;28;20032;-81
2023/06/19 00:15:15;;;;;;;10.27;9.27;;;;;;;17.18;89.23;99458.84;5053228;28;20461;-81
2023/06/19 00:17:41;;;;;;;13.55;10.23;;;;;;;17.33;89.38;99484.97;5052068;28;20386;-81
2023/06/19 00:20:07;;;;;;;10.75;9.65;;;;;;;17.27;89.23;99478.34;5052975;28;20025;-81
2023/06/19 00:22:32;;;;;;;10.68;9.57;;;;;;;17.20;89.31;99470.09;5053172;28;20381;-81
2023/06/19 00:24:58;;;;;;;9.95;9.00;;;;;;;17.30;89.19;99490.44;5053257;28;20025;-81
2023/06/19 00:27:24;;;;;;;10.38;9.38;;;;;;;17.18;89.94;99471.16;5053126;28;20029;-81
2023/06/19 00:29:51;;;;;;;9.82;8.93;;;;;;;17.17;89.74;99469.50;5053195;28;20116;-81
2023/06/19 00:32:16;;;;;;;10.23;9.23;;;;;;;17.25;89.55;99488.16;5052858;28;20100;-81
2023/06/19 00:34:43;;;;;;;9.90;8.98;;;;;;;17.10;89.64;99468.28;5053030;28;20120;-80
2023/06/19 00:37:09;;;;;;;10.07;9.07;;;;;;;17.14;90.21;99478.44;5052583;28;20029;-81
2023/06/19 00:39:35;;;;;;;10.65;9.65;;;;;;;16.99;90.13;99449.88;5053104;28;20059;-81
2023/06/19 00:42:01;;;;;;;10.85;9.75;;;;;;;17.12;90.15;99477.75;5052944;28;20598;-81
2023/06/19 00:44:26;;;;;;;10.43;9.38;;;;;;;17.00;90.21;99468.16;5052881;28;20032;-81
2023/06/19 00:46:57;;;;;;;10.23;9.23;;;;;;;17.02;90.12;99468.03;5052832;28;20127;-80
2023/06/19 00:49:22;;;;;;;10.93;9.93;;;;;;;17.08;90.24;99484.19;5052364;28;20029;-81
2023/06/19 00:51:47;;;;;;;10.40;8.48;;;;;;;17.00;89.74;99473.41;5052790;28;20021;-81
2023/06/19 00:54:13;;;;;;;10.73;9.73;;;;;;;16.83;89.86;99442.28;5051908;28;20480;-81
2023/06/19 00:56:40;;;;;;;12.18;10.93;;;;;;;16.93;90.19;99466.94;5051534;28;20413;-81
2023/06/19 00:59:19;;;;;;;10.85;9.77;;;;;;;16.95;91.02;99473.75;5052249;28;20037;-81
2023/06/19 01:01:45;;;;;;;10.48;9.48;;;;;;;16.80;92.27;99467.03;5052538;28;20048;-81
2023/06/19 01:04:10;;;;;;;11.10;10.05;;;;;;;16.86;91.60;99457.84;5051975;28;20029;-80
2023/06/19 01:06:52;;;;;;;10.85;9.75;;;;;;;16.84;91.32;99454.47;5052676;28;20028;-81
2023/06/19 01:09:20;;;;;;;10.45;9.38;;;;;;;16.86;91.19;99463.13;5052171;28;20086;-80
2023/06/19 01:11:59;;;;;;;11.02;9.88;;;;;;;16.83;91.42;99465.97;5052434;28;20488;-81
2023/06/19 01:14:28;;;;;;;11.30;10.02;;;;;;;16.62;91.51;99435.03;5052122;28;20033;-81
2023/06/19 01:16:54;;;;;;;11.35;10.25;;;;;;;16.60;92.02;99447.47;5052628;28;20381;-81
2023/06/19 01:19:21;;;;;;;10.95;9.82;;;;;;;16.69;92.30;99469.59;5052155;28;20067;-81
2023/06/19 01:21:47;;;;;;;10.90;9.80;;;;;;;16.68;92.27;99467.91;5052340;28;20048;-80
2023/06/19 01:24:13;;;;;;;11.38;10.30;;;;;;;16.68;92.79;99478.44;5050598;28;20044;-81
2023/06/19 01:26:39;;;;;;;11.60;10.35;;;;;;;16.53;92.62;99450.66;5050823;28;20021;-81
2023/06/19 01:29:05;;;;;;;12.05;10.32;;;;;;;16.65;92.68;99474.25;5051833;28;20029;-81
2023/06/19 01:31:33;;;;;;;12.18;10.98;;;;;;;16.64;92.96;99469.09;5052145;28;20465;-81
2023/06/19 01:34:01;;;;;;;11.38;10.27;;;;;;;16.59;93.13;99468.59;5052112;28;20099;-81
2023/06/19 01:36:27;;;;;;;11.23;10.23;;;;;;;16.38;93.64;99442.09;5051877;28;20021;-81
2023/06/19 01:38:56;;;;;;;11.65;10.07;;;;;;;16.42;93.76;99451.44;5052002;28;20036;-80
2023/06/19 01:41:23;;;;;;;11.10;9.95;;;;;;;16.49;93.50;99467.63;5051684;28;20532;-81
2023/06/19 01:43:49;;;;;;;12.10;10.90;;;;;;;16.38;93.55;99445.56;5051776;28;20025;-81
2023/06/19 01:46:14;;;;;;;11.40;10.30;;;;;;;16.30;94.26;99455.81;5051862;28;20545;-81
2023/06/19 01:48:40;;;;;;;10.82;9.65;;;;;;;16.43;94.31;99476.78;5051884;28;20033;-81
2023/06/19 01:51:05;;;;;;;11.00;10.00;;;;;;;16.21;94.74;99452.06;5051747;28;20051;-81
2023/06/19 01:53:31;;;;;;;10.27;9.27;;;;;;;16.33;94.48;99470.53;5052079;28;20032;-81
2023/06/19 01:55:58;;;;;;;12.50;11.30;;;;;;;16.40;94.15;99475.22;5051732;28;20033;-80
2023/06/19 01:58:23;;;;;;;12.57;11.38;;;;;;;16.37;94.54;99485.13;5051498;28;20025;-81
2023/06/19 02:00:48;;;;;;;12.02;10.77;;;;;;;16.32;95.33;99485.47;5051789;28;20112;-81
2023/06/19 02:03:14;;;;;;;11.38;10.38;;;;;;;16.28;95.83;99480.53;5051538;28;20025;-81
2023/06/19 02:05:39;;;;;;;10.90;9.85;;;;;;;16.24;95.59;99472.03;5055279;28;20060;-81
2023/06/19 02:08:06;;;;;;;12.45;11.15;;;;;;;16.27;95.38;99466.56;5055772;28;20028;-81
2023/06/19 02:10:31;;;;;;;11.52;10.40;;;;;;;16.27;95.04;99468.34;5055570;28;20025;-80
2023/06/19 02:12:57;;;;;;;13.07;11.68;;;;;;;16.26;95.15;99477.16;5055507;28;20048;-80
2023/06/19 02:15:22;;;;;;;12.80;11.50;;;;;;;16.13;95.09;99462.28;5055590;28;20028;-81
2023/06/19 02:17:48;;;;;;;10.68;9.68;;;;;;;16.27;95.06;99486.75;5055882;28;20028;-81
2023/06/19 02:20:13;;;;;;;12.70;11.48;;;;;;;16.20;95.05;99476.66;5055277;28;20028;-81
2023/06/19 02:22:39;;;;;;;13.02;11.20;;;;;;;16.13;95.58;99474.59;5055511;28;20021;-80
2023/06/19 02:25:05;;;;;;;14.15;11.05;;;;;;;16.14;95.93;99473.66;5055315;28;20058;-81
2023/06/19 02:27:31;;;;;;;12.88;11.10;;;;;;;15.90;96.97;99445.56;5055181;28;20079;-81
2023/06/19 02:29:56;;;;;;;12.38;11.07;;;;;;;16.09;97.01;99475.75;5055489;28;20480;-80
2023/06/19 02:32:22;;;;;;;13.18;10.18;;;;;;;15.94;96.91;99446.19;5055439;28;20025;-81
2023/06/19 02:34:47;;;;;;;12.13;10.82;;;;;;;15.86;97.18;99444.13;5055321;28;20041;-80
2023/06/19 02:37:12;;;;;;;12.40;11.18;;;;;;;15.99;97.59;99465.09;5055076;28;20104;-81
2023/06/19 02:39:38;;;;;;;13.40;10.95;;;;;;;16.00;97.55;99460.66;5055177;28;20041;-81
2023/06/19 02:42:04;;;;;;;11.85;10.65;;;;;;;15.99;97.15;99454.56;5055186;28;20029;-81
2023/06/19 02:44:30;;;;;;;12.75;11.45;;;;;;;15.98;97.34;99460.78;5055041;28;20057;-81
2023/06/19 02:46:56;;;;;;;11.63;10.45;;;;;;;15.81;97.58;99440.16;5055181;28;20025;-81
2023/06/19 02:49:21;;;;;;;12.80;11.50;;;;;;;15.89;97.55;99457.03;5054658;28;20025;-81
2023/06/19 02:51:46;;;;;;;12.88;11.68;;;;;;;15.85;97.95;99446.88;5055013;28;20025;-81
2023/06/19 02:54:12;;;;;;;13.48;12.25;;;;;;;15.78;97.97;99428.06;5054747;28;20021;-81
2023/06/19 02:56:38;;;;;;;15.10;13.48;;;;;;;15.91;98.34;99452.50;5054711;28;20017;-81
2023/06/19 02:59:03;;;;;;;15.98;11.75;;;;;;;15.97;98.14;99464.38;5054880;28;20149;-81
2023/06/19 03:01:29;;;;;;;12.95;11.68;;;;;;;15.90;97.85;99447.38;5054549;28;20109;-81
2023/06/19 03:03:54;;;;;;;14.20;12.73;;;;;;;16.04;97.34;99468.22;5054713;28;20036;-80
2023/06/19 03:06:19;;;;;;;14.02;12.65;;;;;;;16.00;97.91;99468.53;5054448;28;20029;-81
2023/06/19 03:08:45;;;;;;;13.15;11.75;;;;;;;16.03;98.17;99479.69;5054487;28;20031;-81
2023/06/19 03:11:11;;;;;;;14.18;12.27;;;;;;;15.94;97.81;99465.41;5054198;28;20025;-81
2023/06/19 03:13:47;;;;;;;13.85;12.45;;;;;;;16.01;97.65;99475.47;5054781;28;20021;-81
2023/06/19 03:16:14;;;;;;;12.73;11.43;;;;;;;16.03;98.33;99492.81;5053581;28;20033;-81
2023/06/19 03:18:40;;;;;;;13.40;12.15;;;;;;;15.88;98.43;99473.72;5054467;28;20040;-81
2023/06/19 03:21:05;;;;;;;12.40;11.10;;;;;;;15.78;98.39;99441.19;5054450;28;20021;-81
2023/06/19 03:23:30;;;;;;;13.68;12.38;;;;;;;15.87;98.88;99453.66;5054435;28;20029;-81
2023/06/19 03:25:57;;;;;;;14.30;12.80;;;;;;;15.88;99.22;99457.13;5054818;28;20025;-81
2023/06/19 03:28:22;;;;;;;13.40;12.00;;;;;;;15.96;98.97;99470.56;5054193;28;20029;-81
2023/06/19 03:30:47;;;;;;;14.50;13.05;;;;;;;15.75;99.19;99428.28;5054285;28;20013;-81
2023/06/19 03:33:13;;;;;;;14.02;12.63;;;;;;;15.91;99.48;99454.28;5053979;28;20135;-81
2023/06/19 03:35:38;;;;;;;14.40;12.52;;;;;;;15.88;100.00;99450.09;5054014;28;20060;-81
2023/06/19 03:38:03;;;;;;;14.60;12.20;;;;;;;16.07;100.00;99472.41;5053899;28;20044;-81
2023/06/19 03:40:29;;;;;;;12.88;11.57;;;;;;;16.12;100.00;99476.38;5053961;28;20082;-81
2023/06/19 03:42:54;;;;;;;13.40;12.00;;;;;;;16.01;99.76;99438.69;5054094;28;20025;-81
2023/06/19 03:45:19;;;;;;;14.02;12.13;;;;;;;16.16;99.86;99454.19;5053862;28;20025;-81
2023/06/19 03:47:44;;;;;;;12.80;11.50;;;;;;;16.28;99.50;99441.13;5053924;28;20024;-81
2023/06/19 03:50:10;;;;;;;12.32;11.13;;;;;;;16.50;99.27;99470.13;5053450;28;20032;-85
2023/06/19 03:52:39;;;;;;;14.10;11.35;;;;;;;16.48;99.11;99448.38;5052377;28;20029;-85
2023/06/19 03:55:04;;;;;;;13.90;11.65;;;;;;;16.71;98.60;99449.28;5053926;28;20033;-84
2023/06/19 03:57:30;;;;;;;12.95;11.60;;;;;;;16.73;98.83;99430.78;5052149;28;20033;-85
2023/06/19 03:59:56;;;;;;;14.73;12.45;;;;;;;17.00;98.86;99455.00;5053846;28;20109;-85
2023/06/19 04:02:22;;;;;;;13.63;12.23;;;;;;;17.11;98.51;99443.66;5053446;28;20082;-85
2023/06/19 04:04:48;;;;;;;14.20;12.75;;;;;;;17.37;98.26;99458.28;5053503;28;20060;-85
2023/06/19 04:07:13;;;;;;;14.05;12.60;;;;;;;17.65;97.86;99469.25;5053216;28;20036;-85
2023/06/19 04:09:39;;;;;;;14.50;13.10;;;;;;;17.94;97.25;99470.44;5051785;28;20388;-84
2023/06/19 04:12:04;;;;;;;14.88;13.38;;;;;;;18.39;95.81;99483.53;5053548;28;20035;-84
2023/06/19 04:14:30;;;;;;;15.30;13.68;;;;;;;18.82;93.77;99471.25;5053352;28;20111;-85
2023/06/19 04:16:55;;;;;;;15.27;12.88;;;;;;;19.27;91.13;99457.78;5053671;28;20036;-85
2023/06/19 04:19:20;;;;;;;14.68;13.20;;;;;;;19.83;88.90;99467.91;5053102;28;20021;-85
2023/06/19 04:21:46;;;;;;;13.07;11.77;;;;;;;20.36;87.08;99483.44;5053511;28;20214;-85
2023/06/19 04:24:11;;;;;;;14.02;12.50;;;;;;;20.96;85.18;99468.25;5053244;28;20028;-86
2023/06/19 04:26:36;;;;;;;14.00;12.55;;;;;;;21.78;79.53;99464.09;5053368;28;20033;-85
2023/06/19 04:29:03;;;;;;;12.20;11.10;;;;;;;22.45;77.13;99468.16;5052165;28;20029;-85
2023/06/19 04:31:28;;;;;;;13.10;11.90;;;;;;;22.35;76.44;99480.66;5052906;28;20060;-85
2023/06/19 04:33:56;;;;;;;12.55;11.45;;;;;;;21.95;77.07;99486.34;5053029;28;20067;-85
2023/06/19 04:36:22;;;;;;;13.73;12.52;;;;;;;21.41;78.37;99476.41;5052668;28;20032;-86
2023/06/19 04:38:51;;;;;;;13.95;12.18;;;;;;;21.06;79.83;99479.66;5053128;28;20111;-86
2023/06/19 04:41:16;;;;;;;14.02;12.73;;;;;;;20.83;81.12;99492.38;5052905;28;20082;-85
2023/06/19 04:43:42;;;;;;;14.70;12.98;;;;;;;20.64;82.32;99476.50;5051447;28;20028;-85
2023/06/19 04:46:07;;;;;;;14.38;12.98;;;;;;;20.58;83.13;99483.19;5052472;28;20021;-85
2023/06/19 04:48:35;;;;;;;13.48;12.27;;;;;;;20.58;83.87;99480.56;5052498;28;20118;-85
2023/06/19 04:51:01;;;;;;;14.23;12.95;;;;;;;20.43;83.63;99464.22;5052928;28;20021;-85
2023/06/19 04:53:27;;;;;;;13.20;11.93;;;;;;;20.40;83.80;99453.94;5051238;28;20040;-85
2023/06/19 04:55:54;;;;;;;14.00;12.60;;;;;;;20.40;84.16;99466.31;5052639;28;20024;-85
2023/06/19 04:58:20;;;;;;;12.98;11.77;;;;;;;20.54;83.74;99491.56;5050982;28;20036;-85
2023/06/19 05:00:52;;;;;;;15.55;14.05;;;;;;;20.56;83.76;99500.19;5052727;28;20021;-85
2023/06/19 05:03:18;;;;;;;13.85;12.65;;;;;;;20.41;84.30;99466.19;5050781;28;20032;-86
2023/06/19 05:05:44;;;;;;;14.25;12.85;;;;;;;20.54;83.85;99484.47;5052278;28;20405;-85
2023/06/19 05:08:09;;;;;;;13.80;12.57;;;;;;;20.57;83.35;99497.41;5052521;28;20108;-86
2023/06/19 05:10:35;;;;;;;15.20;13.77;;;;;;;20.67;83.51;99492.13;5050953;28;20025;-85
2023/06/19 05:13:01;;;;;;;14.68;13.38;;;;;;;20.80;82.77;99473.31;5052459;28;20028;-86
2023/06/19 05:15:27;;;;;;;15.27;13.88;;;;;;;20.84;82.53;99477.34;5052149;28;20032;-86
2023/06/19 05:17:52;;;;;;;14.73;13.43;;;;;;;20.96;83.13;99478.84;5050950;28;20033;-86
2023/06/19 05:20:18;;;;;;;14.52;13.23;;;;;;;21.22;82.51;99481.72;5051692;28;20424;-86
2023/06/19 05:22:43;;;;;;;16.92;15.27;;;;;;;21.36;81.13;99467.19;5052437;28;20040;-86
2023/06/19 05:25:09;;;;;;;15.43;13.95;;;;;;;21.99;81.49;99495.66;5052497;28;20025;-86
2023/06/19 05:27:34;;;;;;;14.40;13.10;;;;;;;22.66;79.05;99475.81;5050724;28;20384;-86
2023/06/19 05:29:59;;;;;;;15.63;14.13;;;;;;;23.00;76.66;99485.72;5050619;28;20052;-86
2023/06/19 05:32:25;;;;;;;14.77;13.35;;;;;;;23.69;75.85;99492.81;5051787;28;20075;-87
2023/06/19 05:34:50;;;;;;;14.10;12.80;;;;;;;24.66;72.08;99511.91;5050565;28;20045;-88
2023/06/19 05:37:16;;;;;;;13.13;11.88;;;;;;;25.77;67.60;99504.13;5052252;28;20047;-87
2023/06/19 05:39:41;;;;;;;12.27;11.18;;;;;;;26.62;65.06;99509.50;5050365;28;20427;-87
2023/06/19 05:42:07;;;;;;;13.13;11.90;;;;;;;27.22;63.45;99524.75;5050761;28;20056;-88
2023/06/19 05:44:32;;;;;;;10.50;9.60;;;;;;;27.46;62.24;99528.19;5050718;28;20028;-87
2023/06/19 05:46:58;;;;;;;10.98;10.05;;;;;;;27.38;62.03;99504.19;5050728;28;20031;-86
2023/06/19 05:49:23;;;;;;;11.65;10.65;;;;;;;27.24;61.82;99503.19;5050118;28;20026;-86
2023/06/19 05:51:49;;;;;;;11.75;10.15;;;;;;;26.98;61.58;99522.28;5052023;28;20033;-86
2023/06/19 05:54:14;;;;;;;10.68;9.77;;;;;;;26.67;61.91;99519.66;5050787;28;20029;-86
2023/06/19 05:56:39;;;;;;;11.35;10.35;;;;;;;26.38;62.30;99526.53;5052181;28;20361;-86
2023/06/19 05:59:05;;;;;;;10.65;9.65;;;;;;;26.21;62.89;99528.44;5051827;28;20064;-86
2023/06/19 06:01:30;;;;;;;10.68;9.68;;;;;;;26.21;62.77;99536.47;5051614;28;20029;-86
2023/06/19 06:03:56;;;;;;;10.52;9.63;;;;;;;26.25;62.67;99521.75;5051966;28;20025;-86
2023/06/19 06:06:25;;;;;;;11.20;10.10;;;;;;;26.33;62.39;99529.69;5052065;28;20029;-86
2023/06/19 06:08:54;;;;;;;10.68;9.63;;;;;;;26.45;62.00;99527.50;5050475;28;20483;-87
2023/06/19 06:11:20;;;;;;;10.60;9.70;;;;;;;26.75;61.96;99541.81;5050253;28;20495;-86
2023/06/19 06:13:45;;;;;;;10.95;9.95;;;;;;;27.01;61.41;99533.44;5051663;28;20104;-87
2023/06/19 06:16:10;;;;;;;10.23;9.32;;;;;;;27.54;60.08;99552.16;5051692;28;20021;-87
2023/06/19 06:18:36;;;;;;;10.57;9.57;;;;;;;27.71;58.80;99547.47;5049949;28;20028;-87
2023/06/19 06:21:01;;;;;;;9.85;8.95;;;;;;;28.10;58.61;99550.69;5052213;28;20384;-87
2023/06/19 06:23:27;;;;;;;10.73;9.63;;;;;;;28.47;57.80;99548.91;5049990;28;20028;-87
2023/06/19 06:25:52;;;;;;;10.02;9.00;;;;;;;28.74;56.40;99566.09;5051585;28;20040;-86
2023/06/19 06:28:17;;;;;;;11.32;7.55;;;;;;;29.53;56.28;99554.38;5049063;28;20068;-88
2023/06/19 06:30:43;;;;;;;9.43;8.60;;;;;;;31.14;52.93;99541.31;5041997;28;20029;-87
2023/06/19 06:33:09;;;;;;;8.68;7.82;;;;;;;31.98;51.20;99559.44;5039322;28;20060;-87
2023/06/19 06:35:35;;;;;;;7.97;7.35;;;;;;;32.10;50.47;99567.72;5031038;28;20065;-86
2023/06/19 06:38:01;;;;;;;7.97;7.30;;;;;;;31.51;50.49;99556.84;5031126;28;20072;-87
2023/06/19 06:40:27;;;;;;;8.15;7.55;;;;;;;30.94;51.28;99562.88;5030229;28;20043;-87
2023/06/19 06:42:53;;;;;;;8.93;8.23;;;;;;;29.91;51.53;99527.97;5031551;28;20022;-87
2023/06/19 06:45:19;;;;;;;8.45;7.65;;;;;;;29.30;53.56;99565.38;5031299;28;20025;-87
2023/06/19 06:47:44;;;;;;;9.45;8.48;;;;;;;28.71;55.34;99566.47;5030020;28;20021;-87
2023/06/19 06:50:10;;;;;;;8.63;7.93;;;;;;;28.09;56.10;99532.16;5039063;28;20052;-88
2023/06/19 06:52:35;;;;;;;8.10;7.40;;;;;;;27.77;57.09;99544.94;5041957;28;20021;-87
2023/06/19 06:55:00;;;;;;;9.13;8.30;;;;;;;27.55;58.44;99565.34;5038409;28;20025;-87
2023/06/19 06:57:26;;;;;;;8.30;7.70;;;;;;;27.37;59.39;99572.91;5039127;28;20049;-88
2023/06/19 06:59:51;;;;;;;8.52;7.72;;;;;;;26.98;59.57;99562.38;5046784;28;20093;-87
2023/06/19 07:02:16;;;;;;;10.38;9.27;;;;;;;26.62;60.29;99554.91;5054041;28;20024;-88
2023/06/19 07:04:42;;;;;;;9.98;9.00;;;;;;;26.42;60.46;99541.19;5054513;28;20036;-87
2023/06/19 07:07:08;;;;;;;10.73;8.45;;;;;;;26.37;60.78;99556.88;5054563;28;20021;-87
2023/06/19 07:09:34;;;;;;;8.88;8.18;;;;;;;26.43;60.35;99577.56;5052938;28;20036;-87
2023/06/19 07:11:59;;;;;;;8.93;8.13;;;;;;;26.36;60.47;99564.06;5053197;28;20021;-87
2023/06/19 07:14:24;;;;;;;9.27;8.48;;;;;;;26.18;60.15;99550.16;5053090;28;20040;-87
2023/06/19 07:16:50;;;;;;;8.88;7.93;;;;;;;26.04;58.97;99538.38;5054428;28;20024;-87
2023/06/19 07:19:15;;;;;;;8.45;7.65;;;;;;;26.22;59.74;99564.81;5054233;28;20431;-87
2023/06/19 07:21:41;;;;;;;8.80;7.90;;;;;;;26.12;59.45;99545.50;5054214;28;20032;-87
2023/06/19 07:24:07;;;;;;;8.30;7.50;;;;;;;26.27;59.34;99570.47;5054332;28;20041;-88
2023/06/19 07:26:33;;;;;;;11.73;7.45;;;;;;;26.30;58.91;99566.63;5054413;28;20508;-87
2023/06/19 07:28:58;;;;;;;7.80;7.10;;;;;;;26.20;59.46;99541.97;5054421;28;20489;-87
2023/06/19 07:31:23;;;;;;;8.52;7.82;;;;;;;26.27;59.16;99548.28;5053850;28;20021;-87
2023/06/19 07:33:49;;;;;;;8.35;7.65;;;;;;;26.45;59.86;99572.06;5052518;28;20041;-87
2023/06/19 07:36:15;;;;;;;8.70;7.90;;;;;;;26.68;59.88;99570.25;5054150;28;20021;-87
2023/06/19 07:38:42;;;;;;;8.63;7.93;;;;;;;26.96;58.86;99577.72;5052521;28;20032;-88
2023/06/19 07:41:09;;;;;;;8.63;7.88;;;;;;;27.38;58.01;99579.09;5054119;28;20445;-87
2023/06/19 07:43:35;;;;;;;7.72;7.03;;;;;;;27.73;57.38;99573.09;5053863;28;20029;-88
2023/06/19 07:46:00;;;;;;;8.63;7.88;;;;;;;28.09;56.64;99569.63;5052711;28;20083;-88
2023/06/19 07:48:26;;;;;;;10.00;8.95;;;;;;;28.47;56.22;99578.38;5053847;28;20036;-87
2023/06/19 07:50:53;;;;;;;8.27;7.57;;;;;;;29.09;56.05;99583.16;5053729;28;20032;-87
2023/06/19 07:53:18;;;;;;;8.35;7.60;;;;;;;29.61;54.14;99578.41;5053699;28;20108;-86
2023/06/19 07:55:43;;;;;;;8.25;7.55;;;;;;;29.82;53.05;99585.56;5053910;28;20112;-86
2023/06/19 07:58:09;;;;;;;8.93;8.13;;;;;;;29.87;53.32;99571.53;5053832;28;20107;-86
2023/06/19 08:00:35;;;;;;;8.30;7.60;;;;;;;29.89;53.07;99572.19;5053309;28;20064;-86
2023/06/19 08:03:00;;;;;;;8.18;7.57;;;;;;;30.21;53.14;99568.00;5053359;28;20087;-86
2023/06/19 08:05:26;;;;;;;9.00;7.00;;;;;;;30.57;52.17;99559.66;5053807;28;20028;-86
2023/06/19 08:07:51;;;;;;;7.75;7.10;;;;;;;30.86;52.10;99560.38;5053571;28;20025;-86
2023/06/19 08:10:16;;;;;;;8.20;7.47;;;;;;;31.00;51.61;99553.97;5053492;28;20476;-86
2023/06/19 08:12:43;;;;;;;11.10;7.15;;;;;;;31.39;50.69;99561.22;5051978;28;20025;-86
2023/06/19 08:15:09;;;;;;;7.55;6.85;;;;;;;31.55;49.94;99549.19;5053372;28;20021;-86
2023/06/19 08:17:35;;;;;;;7.07;6.43;;;;;;;31.64;49.09;99558.69;5053343;28;20057;-86
2023/06/19 08:20:00;;;;;;;7.80;6.78;;;;;;;31.58;49.14;99570.31;5053583;28;20052;-86
2023/06/19 08:22:25;;;;;;;6.88;6.18;;;;;;;31.45;48.96;99573.84;5053164;28;20424;-86
2023/06/19 08:24:51;;;;;;;7.18;6.57;;;;;;;31.28;49.64;99546.53;5052011;28;20056;-86
2023/06/19 08:27:16;;;;;;;7.07;6.47;;;;;;;31.11;50.40;99553.34;5051747;28;20028;-86
2023/06/19 08:29:43;;;;;;;8.27;7.25;;;;;;;30.92;50.34;99554.16;5052564;28;20029;-86
2023/06/19 08:32:09;;;;;;;7.38;6.78;;;;;;;30.64;50.60;99533.63;5051914;28;20162;-86
2023/06/19 08:34:34;;;;;;;6.88;6.35;;;;;;;30.73;50.93;99553.94;5051401;28;20508;-86
2023/06/19 08:37:00;;;;;;;6.90;6.32;;;;;;;30.77;50.97;99560.56;5051813;28;20021;-85
2023/06/19 08:39:25;;;;;;;7.28;6.30;;;;;;;30.72;50.62;99556.78;5051524;28;20029;-86
2023/06/19 08:41:53;;;;;;;6.90;6.40;;;;;;;30.64;50.67;99559.69;5052778;28;20056;-86
2023/06/19 08:44:18;;;;;;;7.35;6.75;;;;;;;30.32;49.31;99559.38;5051534;28;20025;-86
2023/06/19 08:46:44;;;;;;;7.25;6.55;;;;;;;29.98;49.48;99536.09;5051078;28;20028;-85
2023/06/19 08:49:10;;;;;;;6.72;6.13;;;;;;;30.19;49.95;99554.78;5052725;28;20156;-86
2023/06/19 08:51:36;;;;;;;7.20;6.60;;;;;;;30.12;48.74;99547.69;5049761;28;20059;-86
2023/06/19 08:54:06;;;;;;;7.47;6.88;;;;;;;29.80;48.55;99528.56;5050394;28;20488;-87
2023/06/19 08:56:37;;;;;;;6.35;5.82;;;;;;;29.75;47.42;99534.53;5049908;28;20040;-86
2023/06/19 08:59:09;;;;;;;7.22;6.72;;;;;;;29.93;48.85;99558.16;5050107;28;20061;-86
2023/06/19 09:01:34;;;;;;;7.18;6.47;;;;;;;29.95;49.32;99548.03;5049803;28;20142;-86
2023/06/19 09:03:59;;;;;;;6.53;5.97;;;;;;;29.96;48.52;99541.66;5033312;28;20473;-86
2023/06/19 09:06:25;;;;;;;6.30;5.70;;;;;;;29.86;48.63;99533.13;5033754;28;20374;-86
2023/06/19 09:09:00;;;;;;;5.78;5.30;;;;;;;29.72;47.38;99545.66;5049959;28;20493;-86
2023/06/19 09:11:25;;;;;;;6.40;5.80;;;;;;;29.55;47.30;99544.28;5032864;28;20532;-86
2023/06/19 09:13:57;;;;;;;7.25;6.13;;;;;;;29.28;47.83;99519.94;5049119;28;20028;-87
2023/06/19 09:16:24;;;;;;;5.82;5.43;;;;;;;29.24;47.79;99542.00;5049910;28;20518;-86
2023/06/19 09:18:49;;;;;;;8.60;6.10;;;;;;;29.04;48.70;99534.63;5032985;28;20025;-86
2023/06/19 09:21:21;;;;;;;6.72;5.40;;;;;;;29.05;48.33;99543.50;5049731;28;20389;-86
2023/06/19 09:23:47;;;;;;;6.22;5.72;;;;;;;28.96;49.06;99552.69;5051819;28;20353;-86
2023/06/19 09:26:16;;;;;;;6.10;5.70;;;;;;;28.92;48.38;99546.88;5050952;28;20308;-86
2023/06/19 09:28:42;;;;;;;6.10;5.60;;;;;;;28.75;48.73;99548.16;5050576;28;20024;-87
2023/06/19 09:31:08;;;;;;;7.70;7.07;;;;;;;28.68;49.24;99549.94;5052250;28;20116;-86
2023/06/19 09:33:36;;;;;;;6.72;6.20;;;;;;;28.62;49.72;99527.44;5051831;28;20113;-86
2023/06/19 09:36:04;;;;;;;7.65;6.82;;;;;;;28.55;49.61;99539.91;5052336;28;20403;-86
2023/06/19 09:38:31;;;;;;;6.90;6.30;;;;;;;28.48;50.50;99542.50;5051694;28;20021;-86
2023/06/19 09:41:00;;;;;;;6.68;6.10;;;;;;;28.42;51.11;99540.59;5051800;28;20462;-86
2023/06/19 09:43:37;;;;;;;7.82;7.03;;;;;;;28.38;50.05;99543.84;5051830;28;20028;-86
2023/06/19 09:46:04;;;;;;;7.32;6.63;;;;;;;27.96;50.51;99523.97;5052193;28;20033;-86
2023/06/19 09:48:32;;;;;;;9.38;6.97;;;;;;;27.84;50.98;99516.41;5050235;28;20448;-86
2023/06/19 09:51:03;;;;;;;7.15;6.45;;;;;;;27.93;50.47;99540.38;5050361;28;20069;-86
2023/06/19 09:53:30;;;;;;;11.80;7.50;;;;;;;27.71;51.64;99526.91;5051678;28;20059;-86
2023/06/19 09:55:56;;;;;;;7.95;7.22;;;;;;;27.64;51.51;99527.81;5051845;28;20369;-86
2023/06/19 09:58:21;;;;;;;8.00;7.13;;;;;;;27.64;52.01;99519.78;5051879;28;20032;-86
2023/06/19 10:00:50;;;;;;;15.73;8.52;;;;;;;27.71;53.00;99523.38;5068889;28;20049;-86
2023/06/19 10:03:16;;;;;;;9.68;7.65;;;;;;;27.49;51.91;99531.31;5069154;28;20444;-85
2023/06/19 10:05:42;;;;;;;8.00;7.20;;;;;;;27.26;50.97;99506.47;5068891;28;20125;-85
2023/06/19 10:08:08;;;;;;;7.30;6.60;;;;;;;27.33;51.56;99526.13;5069132;28;20392;-86
2023/06/19 10:10:34;;;;;;;8.15;7.40;;;;;;;27.11;52.82;99488.59;5051916;28;20028;-85
2023/06/19 10:13:13;;;;;;;9.52;7.80;;;;;;;27.31;53.59;99525.50;5052991;28;20137;-84
2023/06/19 10:15:43;;;;;;;8.95;8.07;;;;;;;27.29;53.75;99498.94;5069051;28;20036;-85
2023/06/19 10:18:16;;;;;;;7.38;6.63;;;;;;;27.67;52.59;99514.06;5052385;28;20037;-86
2023/06/19 10:20:42;;;;;;;7.68;7.03;;;;;;;28.00;52.56;99518.03;5068932;28;20029;-86
2023/06/19 10:23:16;;;;;;;8.20;7.40;;;;;;;28.29;50.48;99530.53;5052367;28;20174;-86
2023/06/19 10:25:43;;;;;;;8.18;7.38;;;;;;;28.20;49.82;99488.81;5053779;28;20178;-85
2023/06/19 10:28:25;;;;;;;11.73;7.57;;;;;;;28.48;50.46;99526.44;5073043;28;20061;-86
2023/06/19 10:30:56;;;;;;;9.82;6.65;;;;;;;28.65;49.44;99529.69;5072433;28;20028;-85
2023/06/19 10:33:23;;;;;;;;;;;;;;;28.72;48.88;99530.59;5073124;28;20029;-86
2023/06/19 10:35:48;;;;;;;7.28;6.68;;;;;;;28.88;49.50;99523.31;5072277;28;19927;-86
2023/06/19 10:38:17;;;;;;;6.57;5.97;;;;;;;29.07;47.39;99517.31;5063768;28;20045;-86
2023/06/19 10:40:44;;;;;;;31.30;8.32;;;;;;;29.29;45.27;99523.50;5053526;28;20454;-86
2023/06/19 10:43:10;;;;;;;6.72;6.05;;;;;;;29.29;45.61;99520.81;5055061;28;20021;-86
2023/06/19 10:45:36;;;;;;;9.35;6.32;;;;;;;29.36;45.95;99507.41;5053708;28;20025;-86
2023/06/19 10:48:03;;;;;;;6.40;5.85;;;;;;;29.45;45.82;99495.50;5054920;28;20531;-86
2023/06/19 10:50:29;;;;;;;5.95;5.38;;;;;;;29.55;44.34;99496.00;5053590;28;20027;-86
2023/06/19 10:52:55;;;;;;;7.90;6.15;;;;;;;29.78;43.94;99519.88;5053632;28;20415;-86
2023/06/19 10:55:21;;;;;;;6.00;5.40;;;;;;;29.85;43.84;99499.25;5053567;28;20040;-86
2023/06/19 10:57:49;;;;;;;5.75;5.25;;;;;;;29.85;43.96;99491.22;5053202;28;20111;-86
2023/06/19 11:00:24;;;;;;;6.03;5.60;;;;;;;30.00;42.18;99516.06;5054704;28;20044;-86
2023/06/19 11:02:50;;;;;;;6.78;6.20;;;;;;;29.80;43.46;99505.22;5051870;28;20033;-86
2023/06/19 11:05:16;;;;;;;6.28;5.78;;;;;;;29.97;44.38;99511.09;5052047;28;20535;-86
2023/06/19 11:07:42;;;;;;;7.13;6.40;;;;;;;29.89;44.29;99481.72;5051938;28;20033;-86
2023/06/19 11:10:07;;;;;;;6.55;6.05;;;;;;;30.15;43.52;99499.81;5052098;28;20223;-86
2023/06/19 11:12:34;;;;;;;6.95;6.35;;;;;;;30.15;44.10;99507.88;5051772;28;20492;-86
2023/06/19 11:15:03;;;;;;;6.60;6.07;;;;;;;30.10;43.21;99504.94;5052037;28;20535;-86
2023/06/19 11:17:28;;;;;;;6.70;6.07;;;;;;;29.95;43.58;99504.25;5051927;28;20180;-86
2023/06/19 11:19:56;;;;;;;6.63;6.13;;;;;;;29.92;44.80;99507.31;5051507;28;20202;-86
2023/06/19 11:22:22;;;;;;;6.07;5.32;;;;;;;29.99;43.77;99513.56;5054968;28;20033;-86